Time;durP1;ratioP1;P1;durP2;ratioP2;P2;SDS_P1;SDS_P2;PMS_P1;PMS_P2;Temp;Humidity;BMP_temperature;BMP_pressure;BME280_temperature;BME280_humidity;BME280_pressure;Samples;Min_cycle;Max_cycle;Signal;HPM_P1;HPM_P2
2023/02/05 00:02:11;;;;;;;0.73;0.73;;;2.10;99.90;;;;;;5055644;28;20200;-69
2023/02/05 00:04:37;;;;;;;0.40;0.40;;;2.00;99.90;;;;;;5056046;28;20173;-69
2023/02/05 00:07:03;;;;;;;0.40;0.40;;;1.90;99.90;;;;;;5056011;28;20251;-69
2023/02/05 00:09:29;;;;;;;0.40;0.40;;;1.90;99.90;;;;;;5055949;28;20174;-69
2023/02/05 00:11:55;;;;;;;0.30;0.30;;;2.00;99.90;;;;;;5054921;28;20212;-69
2023/02/05 00:14:22;;;;;;;1.73;1.45;;;1.90;99.90;;;;;;5053833;28;20410;-69
2023/02/05 00:16:47;;;;;;;0.40;0.40;;;1.80;99.90;;;;;;5054665;28;20231;-69
2023/02/05 00:19:13;;;;;;;2.00;0.83;;;1.80;99.90;;;;;;5055807;28;20185;-69
2023/02/05 00:21:39;;;;;;;0.60;0.60;;;1.70;99.90;;;;;;5055424;28;20517;-69
2023/02/05 00:24:05;;;;;;;0.30;0.30;;;1.90;99.90;;;;;;5055686;28;20166;-69
2023/02/05 00:26:31;;;;;;;0.40;0.40;;;1.90;99.90;;;;;;5055383;28;20531;-69
2023/02/05 00:28:57;;;;;;;0.40;0.40;;;1.90;99.90;;;;;;5055517;28;20166;-69
2023/02/05 00:31:23;;;;;;;0.33;0.33;;;2.00;99.90;;;;;;5055402;28;20935;-69
2023/02/05 00:33:50;;;;;;;1.60;1.60;;;2.10;99.90;;;;;;5055334;28;20255;-69
2023/02/05 00:36:17;;;;;;;0.30;0.30;;;2.00;99.90;;;;;;5055482;28;20181;-69
2023/02/05 00:38:43;;;;;;;0.30;0.30;;;2.00;99.90;;;;;;5055448;28;20191;-69
2023/02/05 00:41:10;;;;;;;0.40;0.40;;;1.90;99.90;;;;;;5055417;28;20197;-69
2023/02/05 00:43:36;;;;;;;0.40;0.40;;;1.90;99.90;;;;;;5055002;28;20282;-70
2023/02/05 00:46:02;;;;;;;0.40;0.40;;;1.90;99.90;;;;;;5053973;28;20662;-69
2023/02/05 00:48:28;;;;;;;0.47;0.47;;;1.80;99.90;;;;;;5055354;28;20183;-70
2023/02/05 00:50:53;;;;;;;0.90;0.60;;;1.80;99.90;;;;;;5055171;28;20213;-69
2023/02/05 00:53:20;;;;;;;0.33;0.33;;;1.70;99.90;;;;;;5054833;28;20779;-69
2023/02/05 00:55:45;;;;;;;0.40;0.40;;;1.70;99.90;;;;;;5054997;28;20608;-69
2023/02/05 00:58:11;;;;;;;0.40;0.40;;;1.70;99.90;;;;;;5054978;28;20272;-69
2023/02/05 01:00:37;;;;;;;0.40;0.40;;;1.90;99.90;;;;;;5054936;28;20192;-69
2023/02/05 01:03:03;;;;;;;0.40;0.40;;;1.90;99.90;;;;;;5054711;28;20208;-69
2023/02/05 01:05:31;;;;;;;0.37;0.37;;;1.90;99.90;;;;;;5055052;28;20177;-69
2023/02/05 01:07:57;;;;;;;0.60;0.60;;;1.80;99.90;;;;;;5054996;28;20173;-69
2023/02/05 01:10:23;;;;;;;0.40;0.40;;;1.70;99.90;;;;;;5054551;28;20176;-69
2023/02/05 01:12:49;;;;;;;0.33;0.33;;;1.80;99.90;;;;;;5054557;28;20203;-69
2023/02/05 01:15:15;;;;;;;0.30;0.30;;;1.80;99.90;;;;;;5054712;28;20183;-69
2023/02/05 01:17:41;;;;;;;1.48;0.82;;;1.70;99.90;;;;;;5054804;28;20221;-69
2023/02/05 01:20:08;;;;;;;0.40;0.40;;;1.70;99.90;;;;;;5054600;28;20207;-69
2023/02/05 01:22:33;;;;;;;0.40;0.40;;;1.60;99.90;;;;;;5054327;28;20197;-69
2023/02/05 01:24:59;;;;;;;0.80;0.77;;;1.60;99.90;;;;;;5054385;28;20199;-69
2023/02/05 01:27:25;;;;;;;0.40;0.40;;;1.50;99.90;;;;;;5054305;28;20222;-69
2023/02/05 01:29:50;;;;;;;0.40;0.40;;;1.50;99.90;;;;;;5054424;28;20173;-69
2023/02/05 01:32:17;;;;;;;0.40;0.40;;;1.50;99.90;;;;;;5054077;28;20189;-69
2023/02/05 01:34:43;;;;;;;0.40;0.40;;;1.40;99.90;;;;;;5054406;28;20173;-69
2023/02/05 01:37:09;;;;;;;0.40;0.40;;;1.50;99.90;;;;;;5053555;28;20214;-69
2023/02/05 01:39:36;;;;;;;0.30;0.30;;;1.60;99.90;;;;;;5054129;28;20517;-69
2023/02/05 01:42:03;;;;;;;0.70;0.70;;;1.60;99.90;;;;;;5053791;28;20222;-69
2023/02/05 01:44:29;;;;;;;0.40;0.40;;;1.60;99.90;;;;;;5054162;28;20169;-69
2023/02/05 01:46:55;;;;;;;0.70;0.70;;;1.50;99.90;;;;;;5054296;28;20172;-69
2023/02/05 01:49:29;;;;;;;0.60;0.60;;;1.50;99.90;;;;;;5054185;28;20180;-69
2023/02/05 01:52:01;;;;;;;0.47;0.47;;;1.50;99.90;;;;;;5054057;28;20206;-69
2023/02/05 01:54:30;;;;;;;0.40;0.40;;;1.50;99.90;;;;;;5053963;28;20232;-69
2023/02/05 01:57:03;;;;;;;0.30;0.30;;;1.40;99.90;;;;;;5053928;28;20176;-69
2023/02/05 01:59:33;;;;;;;0.30;0.30;;;1.40;99.90;;;;;;5053968;28;20175;-69
2023/02/05 02:02:00;;;;;;;0.57;0.57;;;1.40;99.90;;;;;;5053593;28;20353;-69
2023/02/05 02:04:48;;;;;;;0.40;0.40;;;1.50;99.90;;;;;;5053894;28;20168;-69
2023/02/05 02:07:17;;;;;;;0.38;0.38;;;1.40;99.90;;;;;;5052347;28;20644;-69
2023/02/05 02:09:44;;;;;;;0.30;0.30;;;1.40;99.90;;;;;;5053752;28;20525;-69
2023/02/05 02:12:13;;;;;;;0.30;0.30;;;1.30;99.90;;;;;;5053405;28;20568;-69
2023/02/05 02:14:41;;;;;;;0.30;0.30;;;1.20;99.90;;;;;;5053730;28;20179;-69
2023/02/05 02:17:09;;;;;;;0.38;0.38;;;1.20;99.90;;;;;;5053776;28;20691;-69
2023/02/05 02:19:44;;;;;;;0.30;0.30;;;1.20;99.90;;;;;;5053598;28;20626;-69
2023/02/05 02:22:54;;;;;;;0.30;0.30;;;1.10;99.90;;;;;;5053285;28;20710;-69
2023/02/05 02:25:43;;;;;;;0.75;0.75;;;1.00;99.90;;;;;;5053907;28;20172;-69
2023/02/05 02:28:27;;;;;;;0.50;0.50;;;1.00;99.90;;;;;;5053526;28;20528;-69
2023/02/05 02:31:04;;;;;;;0.35;0.35;;;1.00;99.90;;;;;;5053487;28;20718;-69
2023/02/05 02:34:01;;;;;;;0.30;0.30;;;1.20;99.90;;;;;;5053101;28;20179;-69
2023/02/05 02:36:35;;;;;;;0.40;0.40;;;1.20;99.90;;;;;;5053308;28;20225;-70
2023/02/05 02:39:09;;;;;;;0.30;0.30;;;1.20;99.90;;;;;;5052871;28;20175;-69
2023/02/05 02:41:54;;;;;;;0.30;0.30;;;1.20;99.90;;;;;;5051591;28;20203;-69
2023/02/05 02:44:32;;;;;;;0.30;0.30;;;1.10;99.90;;;;;;5053199;28;20181;-69
2023/02/05 02:47:02;;;;;;;0.30;0.30;;;1.00;99.90;;;;;;5053313;28;20199;-69
2023/02/05 02:49:51;;;;;;;0.30;0.30;;;0.90;99.90;;;;;;5054043;28;20203;-69
2023/02/05 02:52:19;;;;;;;0.40;0.40;;;0.90;99.90;;;;;;5056692;28;20673;-69
2023/02/05 02:54:48;;;;;;;0.50;0.50;;;0.90;99.90;;;;;;5057206;28;20269;-69
2023/02/05 02:57:16;;;;;;;0.30;0.30;;;1.00;99.90;;;;;;5057474;28;20164;-69
2023/02/05 02:59:45;;;;;;;0.30;0.30;;;1.00;99.90;;;;;;5057282;28;20183;-69
2023/02/05 03:02:14;;;;;;;0.52;0.52;;;1.10;99.90;;;;;;5056863;28;20582;-69
2023/02/05 03:04:44;;;;;;;0.40;0.40;;;1.10;99.90;;;;;;5056976;28;20176;-69
2023/02/05 03:07:41;;;;;;;0.30;0.30;;;1.10;99.90;;;;;;5057451;28;20170;-69
2023/02/05 03:10:41;;;;;;;0.35;0.35;;;1.00;99.90;;;;;;5056305;28;20216;-69
2023/02/05 03:13:11;;;;;;;0.30;0.30;;;1.00;99.90;;;;;;5056777;28;20589;-69
2023/02/05 03:15:40;;;;;;;0.70;0.70;;;1.10;99.90;;;;;;5056855;28;20178;-69
2023/02/05 03:18:06;;;;;;;0.70;0.70;;;1.10;99.90;;;;;;5056855;28;20202;-69
2023/02/05 03:20:43;;;;;;;0.30;0.30;;;1.10;99.90;;;;;;5056945;28;20648;-69
2023/02/05 03:23:09;;;;;;;0.30;0.30;;;1.10;99.90;;;;;;5056600;28;20269;-69
2023/02/05 03:25:35;;;;;;;0.50;0.50;;;1.10;99.90;;;;;;5056851;28;20230;-69
2023/02/05 03:28:00;;;;;;;0.40;0.40;;;1.10;99.90;;;;;;5056876;28;20179;-69
2023/02/05 03:30:51;;;;;;;0.40;0.40;;;1.10;99.90;;;;;;5056758;28;20198;-69
2023/02/05 03:33:32;;;;;;;0.40;0.40;;;1.00;99.90;;;;;;5056638;28;20169;-69
2023/02/05 03:36:35;;;;;;;0.40;0.40;;;1.00;99.90;;;;;;5056680;28;20179;-69
2023/02/05 03:39:17;;;;;;;1.27;0.90;;;1.00;99.90;;;;;;5056541;28;20184;-69
2023/02/05 03:42:05;;;;;;;0.30;0.30;;;1.10;99.90;;;;;;5056113;28;20707;-69
2023/02/05 03:45:03;;;;;;;0.30;0.30;;;1.10;99.90;;;;;;5056811;28;20536;-69
2023/02/05 03:47:57;;;;;;;0.30;0.30;;;1.20;99.90;;;;;;5056544;28;20251;-69
2023/02/05 03:50:31;;;;;;;0.60;0.60;;;1.20;99.90;;;;;;5056392;28;20687;-69
2023/02/05 03:53:07;;;;;;;0.30;0.30;;;1.20;99.90;;;;;;5056035;28;20182;-69
2023/02/05 03:55:44;;;;;;;0.40;0.40;;;1.10;99.90;;;;;;5056332;28;20174;-69
2023/02/05 03:58:22;;;;;;;0.82;0.68;;;1.00;99.90;;;;;;5056341;28;20183;-69
2023/02/05 04:00:48;;;;;;;0.30;0.30;;;1.10;99.90;;;;;;5055659;28;20191;-69
2023/02/05 04:03:14;;;;;;;0.40;0.40;;;1.20;99.90;;;;;;5055681;28;20195;-69
2023/02/05 04:05:40;;;;;;;1.15;0.60;;;1.20;99.90;;;;;;5056366;28;20431;-69
2023/02/05 04:08:06;;;;;;;0.60;0.60;;;1.20;99.90;;;;;;5055973;28;20179;-69
2023/02/05 04:10:31;;;;;;;0.30;0.30;;;1.20;99.90;;;;;;5055761;28;20262;-69
2023/02/05 04:12:57;;;;;;;0.43;0.43;;;1.10;99.90;;;;;;5055728;28;20479;-69
2023/02/05 04:15:22;;;;;;;0.40;0.40;;;1.00;99.90;;;;;;5056218;28;20221;-69
2023/02/05 04:17:48;;;;;;;0.30;0.30;;;1.00;99.90;;;;;;5055641;28;20257;-69
2023/02/05 04:20:14;;;;;;;0.60;0.60;;;0.90;99.90;;;;;;5055563;28;20275;-69
2023/02/05 04:22:39;;;;;;;0.40;0.40;;;0.90;99.90;;;;;;5055467;28;20630;-69
2023/02/05 04:25:05;;;;;;;0.30;0.30;;;0.80;99.90;;;;;;5055673;28;20167;-69
2023/02/05 04:27:31;;;;;;;0.50;0.50;;;0.80;99.90;;;;;;5055655;28;20536;-69
2023/02/05 04:29:57;;;;;;;0.30;0.30;;;0.80;99.90;;;;;;5055760;28;20186;-69
2023/02/05 04:32:23;;;;;;;0.70;0.60;;;0.90;99.90;;;;;;5055082;28;20191;-69
2023/02/05 04:34:49;;;;;;;0.40;0.40;;;0.80;99.90;;;;;;5055617;28;20607;-69
2023/02/05 04:37:14;;;;;;;0.30;0.30;;;0.70;99.90;;;;;;5055369;28;20513;-69
2023/02/05 04:39:40;;;;;;;0.70;0.70;;;0.70;99.90;;;;;;5055402;28;20175;-69
2023/02/05 04:42:05;;;;;;;0.50;0.50;;;0.70;99.90;;;;;;5055111;28;20206;-69
2023/02/05 04:44:31;;;;;;;0.40;0.40;;;0.60;99.90;;;;;;5055362;28;20178;-69
2023/02/05 04:46:57;;;;;;;0.30;0.30;;;0.60;99.90;;;;;;5055362;28;20517;-69
2023/02/05 04:49:22;;;;;;;0.37;0.37;;;0.70;99.90;;;;;;5055602;28;20168;-69
2023/02/05 04:51:48;;;;;;;1.00;1.00;;;0.60;99.90;;;;;;5054856;28;20428;-69
2023/02/05 04:54:14;;;;;;;0.30;0.30;;;0.60;99.90;;;;;;5055302;28;20169;-69
2023/02/05 04:56:39;;;;;;;0.30;0.30;;;0.60;99.90;;;;;;5055139;28;20173;-69
2023/02/05 04:59:05;;;;;;;0.40;0.40;;;0.50;99.90;;;;;;5055122;28;20171;-69
2023/02/05 05:01:30;;;;;;;0.40;0.40;;;0.40;99.90;;;;;;5054995;28;20660;-69
2023/02/05 05:03:56;;;;;;;0.30;0.30;;;0.40;99.90;;;;;;5054618;28;20199;-69
2023/02/05 05:06:22;;;;;;;0.40;0.40;;;0.50;99.90;;;;;;5054890;28;20164;-69
2023/02/05 05:08:47;;;;;;;0.30;0.30;;;0.60;99.90;;;;;;5054899;28;20652;-69
2023/02/05 05:11:16;;;;;;;0.40;0.40;;;0.60;99.90;;;;;;5054952;28;20188;-69
2023/02/05 05:13:42;;;;;;;0.30;0.30;;;0.60;99.90;;;;;;5053803;28;20173;-69
2023/02/05 05:16:09;;;;;;;0.40;0.40;;;0.60;99.90;;;;;;5054782;28;20176;-69
2023/02/05 05:18:36;;;;;;;0.30;0.30;;;0.50;99.90;;;;;;5054615;28;20174;-69
2023/02/05 05:21:03;;;;;;;2.15;1.98;;;0.50;99.90;;;;;;5054583;28;20253;-69
2023/02/05 05:23:29;;;;;;;0.40;0.40;;;0.50;99.90;;;;;;5054343;28;20249;-69
2023/02/05 05:25:54;;;;;;;1.15;1.15;;;0.50;99.90;;;;;;5054450;28;20179;-69
2023/02/05 05:28:20;;;;;;;0.40;0.40;;;0.60;99.90;;;;;;5054597;28;20221;-69
2023/02/05 05:30:46;;;;;;;0.30;0.30;;;0.50;99.90;;;;;;5054749;28;20191;-69
2023/02/05 05:33:12;;;;;;;0.30;0.30;;;0.40;99.90;;;;;;5054157;28;20447;-69
2023/02/05 05:35:37;;;;;;;0.30;0.30;;;0.40;99.90;;;;;;5054175;28;20890;-69
2023/02/05 05:38:04;;;;;;;0.40;0.40;;;0.30;99.90;;;;;;5054193;28;20187;-69
2023/02/05 05:46:04;;;;;;;0.30;0.30;;;0.40;99.90;;;;;;5054535;28;20255;-69
2023/02/05 05:48:30;;;;;;;0.30;0.30;;;0.50;99.90;;;;;;5054069;28;20175;-69
2023/02/05 05:50:56;;;;;;;0.40;0.40;;;0.40;99.90;;;;;;5053943;28;20206;-69
2023/02/05 05:53:22;;;;;;;1.37;1.07;;;0.40;99.90;;;;;;5053706;28;20182;-69
2023/02/05 05:55:47;;;;;;;0.40;0.40;;;0.30;99.90;;;;;;5054554;28;20175;-69
2023/02/05 05:58:13;;;;;;;0.37;0.37;;;0.30;99.90;;;;;;5053894;28;20540;-69
2023/02/05 06:00:40;;;;;;;0.30;0.30;;;0.40;99.90;;;;;;5053915;28;20540;-69
2023/02/05 06:03:06;;;;;;;0.30;0.30;;;0.40;99.90;;;;;;5052378;28;20268;-69
2023/02/05 06:05:32;;;;;;;0.30;0.30;;;0.40;99.90;;;;;;5053852;28;20173;-69
2023/02/05 06:07:58;;;;;;;0.30;0.30;;;0.40;99.90;;;;;;5053817;28;20254;-69
2023/02/05 06:10:24;;;;;;;0.30;0.30;;;0.40;99.90;;;;;;5053737;28;20402;-69
2023/02/05 06:12:51;;;;;;;0.30;0.30;;;0.50;99.90;;;;;;5053593;28;20409;-69
2023/02/05 06:15:18;;;;;;;0.82;0.82;;;0.50;99.90;;;;;;5053626;28;20178;-69
2023/02/05 06:17:43;;;;;;;0.30;0.30;;;0.40;99.90;;;;;;5053858;28;20186;-69
2023/02/05 06:20:11;;;;;;;0.30;0.30;;;0.30;99.90;;;;;;5053436;28;20180;-69
2023/02/05 06:22:37;;;;;;;0.60;0.60;;;0.20;99.90;;;;;;5053182;28;20244;-69
2023/02/05 06:25:03;;;;;;;0.30;0.30;;;0.20;99.90;;;;;;5053144;28;20168;-69
2023/02/05 06:27:29;;;;;;;0.30;0.30;;;0.20;99.90;;;;;;5053601;28;20805;-69
2023/02/05 06:29:54;;;;;;;0.30;0.30;;;0.30;99.90;;;;;;5053477;28;20183;-69
2023/02/05 06:32:21;;;;;;;0.40;0.40;;;0.40;99.90;;;;;;5053126;28;20487;-69
2023/02/05 06:34:46;;;;;;;0.30;0.30;;;0.30;99.90;;;;;;5053519;28;20534;-69
2023/02/05 06:37:12;;;;;;;0.30;0.30;;;0.20;99.90;;;;;;5053253;28;20196;-69
2023/02/05 06:39:38;;;;;;;0.40;0.40;;;0.10;99.90;;;;;;5053696;28;20409;-69
2023/02/05 06:42:04;;;;;;;0.40;0.40;;;0.20;99.90;;;;;;5052970;28;20682;-69
2023/02/05 06:44:29;;;;;;;0.30;0.30;;;0.30;99.90;;;;;;5053326;28;20175;-69
2023/02/05 06:46:55;;;;;;;1.00;0.97;;;0.20;99.90;;;;;;5053170;28;20481;-69
2023/02/05 06:49:20;;;;;;;0.50;0.50;;;0.20;99.90;;;;;;5053359;28;20632;-69
2023/02/05 06:51:46;;;;;;;0.40;0.40;;;0.20;99.90;;;;;;5052897;28;20224;-69
2023/02/05 06:54:12;;;;;;;0.30;0.30;;;0.30;99.90;;;;;;5053135;28;20310;-69
2023/02/05 06:56:37;;;;;;;0.33;0.33;;;0.30;99.90;;;;;;5053203;28;20514;-69
2023/02/05 06:59:03;;;;;;;1.43;1.33;;;0.30;99.90;;;;;;5049961;28;20251;-69
2023/02/05 07:01:29;;;;;;;0.50;0.50;;;0.30;99.90;;;;;;5050314;28;20565;-69
2023/02/05 07:03:55;;;;;;;0.70;0.53;;;0.30;99.90;;;;;;5051727;28;20212;-69
2023/02/05 07:06:23;;;;;;;0.40;0.40;;;0.50;99.90;;;;;;5053234;28;20176;-69
2023/02/05 07:08:50;;;;;;;0.63;0.63;;;0.60;99.90;;;;;;5052966;28;20760;-69
2023/02/05 07:11:15;;;;;;;0.95;0.93;;;0.70;99.90;;;;;;5052924;28;20603;-69
2023/02/05 07:13:41;;;;;;;0.47;0.47;;;0.90;99.90;;;;;;5052824;28;20230;-69
2023/02/05 07:16:07;;;;;;;0.40;0.40;;;1.00;99.90;;;;;;5053128;28;20176;-69
2023/02/05 07:18:33;;;;;;;4.30;2.33;;;1.20;99.90;;;;;;5053030;28;20192;-69
2023/02/05 07:21:02;;;;;;;0.50;0.50;;;1.40;99.90;;;;;;5053002;28;20446;-69
2023/02/05 07:23:28;;;;;;;0.30;0.30;;;1.50;99.90;;;;;;5052611;28;20234;-69
2023/02/05 07:25:54;;;;;;;1.00;1.00;;;1.50;99.90;;;;;;5052912;28;20166;-69
2023/02/05 07:28:19;;;;;;;0.40;0.40;;;1.50;99.90;;;;;;5052951;28;20177;-69
2023/02/05 07:30:46;;;;;;;1.07;1.07;;;1.60;99.90;;;;;;5052906;28;20186;-69
2023/02/05 07:33:12;;;;;;;0.60;0.60;;;1.70;99.90;;;;;;5052568;28;20169;-69
2023/02/05 07:35:38;;;;;;;0.40;0.40;;;1.80;99.90;;;;;;5052296;28;20200;-69
2023/02/05 07:38:04;;;;;;;9.53;2.30;;;1.90;99.90;;;;;;5056429;28;20430;-69
2023/02/05 07:40:30;;;;;;;0.40;0.40;;;2.10;99.90;;;;;;5056426;28;20513;-69
2023/02/05 07:42:56;;;;;;;0.32;0.32;;;2.10;99.90;;;;;;5055993;28;20228;-72
2023/02/05 07:45:23;;;;;;;0.80;0.80;;;2.10;99.90;;;;;;5055261;28;20169;-73
2023/02/05 07:47:49;;;;;;;1.17;1.08;;;2.20;99.90;;;;;;5056422;28;20250;-73
2023/02/05 07:50:16;;;;;;;0.65;0.60;;;2.30;99.90;;;;;;5056286;28;20253;-73
2023/02/05 07:52:42;;;;;;;0.40;0.40;;;2.40;99.90;;;;;;5056177;28;20572;-73
2023/02/05 07:55:08;;;;;;;0.85;0.85;;;2.50;99.90;;;;;;5056403;28;20180;-73
2023/02/05 07:57:33;;;;;;;0.60;0.60;;;2.60;99.90;;;;;;5056303;28;20253;-73
2023/02/05 07:59:59;;;;;;;0.70;0.70;;;2.80;99.70;;;;;;5056572;28;20408;-71
2023/02/05 08:02:25;;;;;;;1.07;1.07;;;2.90;99.70;;;;;;5056125;28;20202;-71
2023/02/05 08:04:51;;;;;;;0.93;0.70;;;2.90;99.90;;;;;;5055997;28;20172;-71
2023/02/05 08:07:17;;;;;;;0.40;0.40;;;2.90;99.70;;;;;;5056071;28;20174;-71
2023/02/05 08:09:42;;;;;;;0.50;0.50;;;2.90;99.80;;;;;;5056213;28;20873;-71
2023/02/05 08:12:08;;;;;;;1.13;1.13;;;3.50;99.80;;;;;;5055934;28;20197;-71
2023/02/05 08:14:34;;;;;;;2.17;1.40;;;3.00;99.60;;;;;;5056131;28;20170;-72
2023/02/05 08:17:00;;;;;;;1.10;1.10;;;3.20;99.70;;;;;;5055863;28;20255;-71
2023/02/05 08:19:26;;;;;;;1.00;1.00;;;3.30;99.80;;;;;;5055728;28;20208;-72
2023/02/05 08:21:52;;;;;;;1.60;1.50;;;3.40;99.80;;;;;;5055359;28;20420;-72
2023/02/05 08:24:18;;;;;;;1.25;0.75;;;3.50;99.70;;;;;;5055633;28;20167;-71
2023/02/05 08:26:44;;;;;;;0.40;0.40;;;3.60;99.60;;;;;;5055675;28;20178;-71
2023/02/05 08:29:10;;;;;;;0.53;0.53;;;3.50;98.90;;;;;;5055650;28;20892;-71
2023/02/05 08:31:37;;;;;;;0.40;0.40;;;3.50;99.00;;;;;;5055510;28;20519;-72
2023/02/05 08:34:03;;;;;;;0.60;0.60;;;3.60;98.70;;;;;;5055340;28;20202;-71
2023/02/05 08:36:29;;;;;;;0.93;0.93;;;3.70;98.60;;;;;;5055551;28;20170;-71
2023/02/05 08:38:55;;;;;;;5.53;0.83;;;3.80;98.70;;;;;;5055922;28;20681;-70
2023/02/05 08:41:20;;;;;;;0.60;0.60;;;3.70;98.40;;;;;;5055561;28;20205;-71
2023/02/05 08:43:48;;;;;;;1.33;1.33;;;3.80;98.60;;;;;;5055406;28;20201;-71
2023/02/05 08:46:18;;;;;;;0.50;0.50;;;3.80;98.80;;;;;;5055534;28;20397;-70
2023/02/05 08:48:44;;;;;;;0.60;0.60;;;3.80;98.60;;;;;;5055477;28;20173;-71
2023/02/05 08:51:11;;;;;;;1.17;1.08;;;3.90;98.60;;;;;;5055152;28;20186;-71
2023/02/05 08:53:36;;;;;;;0.60;0.60;;;4.00;98.80;;;;;;5055225;28;20179;-71
2023/02/05 08:56:04;;;;;;;0.70;0.70;;;4.00;98.70;;;;;;5055413;28;20178;-71
2023/02/05 08:58:30;;;;;;;1.45;1.35;;;3.90;98.40;;;;;;5055589;28;20627;-71
2023/02/05 09:01:03;;;;;;;0.50;0.50;;;3.90;98.50;;;;;;5055573;28;20248;-72
2023/02/05 09:03:29;;;;;;;0.57;0.57;;;4.00;98.10;;;;;;5054808;28;20452;-71
2023/02/05 09:05:56;;;;;;;1.25;1.10;;;4.00;98.10;;;;;;5053634;28;20174;-71
2023/02/05 09:08:21;;;;;;;1.17;1.17;;;3.90;98.20;;;;;;5055181;28;20239;-72
2023/02/05 09:10:47;;;;;;;0.97;0.97;;;3.80;98.50;;;;;;5054992;28;20665;-71
2023/02/05 09:13:13;;;;;;;1.20;1.20;;;3.80;99.00;;;;;;5054534;28;20663;-72
2023/02/05 09:15:45;;;;;;;2.40;2.30;;;3.90;99.50;;;;;;5055120;28;20162;-72
2023/02/05 09:18:11;;;;;;;2.22;2.13;;;3.90;99.40;;;;;;5054606;28;20179;-72
2023/02/05 09:20:42;;;;;;;1.07;1.07;;;3.80;99.20;;;;;;5054798;28;20194;-71
2023/02/05 09:23:10;;;;;;;1.35;1.35;;;3.90;99.00;;;;;;5054658;28;20236;-71
2023/02/05 09:25:39;;;;;;;0.40;0.40;;;4.00;99.10;;;;;;5054895;28;20518;-71
2023/02/05 09:28:08;;;;;;;1.20;1.13;;;4.00;99.00;;;;;;5055071;28;20237;-72
2023/02/05 09:30:35;;;;;;;1.45;1.35;;;4.00;99.20;;;;;;5054378;28;20235;-71
2023/02/05 09:33:00;;;;;;;1.67;0.95;;;4.20;99.50;;;;;;5054529;28;20236;-73
2023/02/05 09:35:26;;;;;;;3.80;1.67;;;4.30;99.50;;;;;;5054646;28;20174;-73
2023/02/05 09:37:52;;;;;;;0.70;0.70;;;4.40;99.40;;;;;;5054139;28;20570;-71
2023/02/05 09:40:20;;;;;;;0.40;0.40;;;4.40;99.40;;;;;;5054742;28;20258;-72
2023/02/05 09:43:24;;;;;;;0.88;0.88;;;4.40;99.50;;;;;;5053929;28;20186;-71
2023/02/05 09:46:02;;;;;;;1.20;1.10;;;4.50;99.40;;;;;;5053764;28;20704;-73
2023/02/05 09:48:41;;;;;;;1.45;1.45;;;4.60;99.30;;;;;;5054765;28;20586;-72
2023/02/05 09:51:10;;;;;;;3.47;3.33;;;4.60;99.30;;;;;;5054507;28;20187;-72
2023/02/05 09:53:41;;;;;;;4.35;4.10;;;4.70;99.20;;;;;;5053852;28;20213;-71
2023/02/05 09:56:08;;;;;;;11.02;7.95;;;4.70;99.00;;;;;;5054405;28;20237;-72
2023/02/05 09:58:41;;;;;;;1.58;1.48;;;4.80;98.70;;;;;;5053705;28;20208;-69
2023/02/05 10:01:19;;;;;;;0.93;0.93;;;4.90;98.50;;;;;;5054477;28;20192;-72
2023/02/05 10:03:48;;;;;;;2.17;1.98;;;4.90;98.60;;;;;;5053626;28;20560;-71
2023/02/05 10:06:44;;;;;;;1.30;1.30;;;4.90;98.30;;;;;;5054050;28;20178;-71
2023/02/05 10:09:37;;;;;;;2.35;2.05;;;4.90;98.50;;;;;;5054390;28;20568;-72
2023/02/05 10:12:30;;;;;;;0.77;0.77;;;4.90;98.80;;;;;;5053559;28;20636;-71
2023/02/05 10:15:10;;;;;;;1.55;0.75;;;4.90;98.90;;;;;;5053990;28;20170;-72
2023/02/05 10:18:09;;;;;;;0.50;0.50;;;4.80;98.80;;;;;;5053636;28;20537;-72
2023/02/05 10:21:00;;;;;;;0.98;0.98;;;4.90;98.90;;;;;;5053138;28;20197;-71
2023/02/05 10:23:53;;;;;;;0.57;0.57;;;5.00;98.90;;;;;;5053036;28;20248;-72
2023/02/05 10:26:25;;;;;;;1.02;1.02;;;5.10;98.90;;;;;;5053714;28;20221;-72
2023/02/05 10:29:25;;;;;;;1.52;1.42;;;5.00;98.60;;;;;;5053447;28;20205;-72
2023/02/05 10:32:09;;;;;;;0.77;0.77;;;5.10;98.80;;;;;;5051846;28;20226;-71
2023/02/05 10:34:43;;;;;;;0.40;0.40;;;5.10;98.70;;;;;;5053408;28;20170;-70
2023/02/05 10:37:18;;;;;;;2.22;1.98;;;5.20;98.50;;;;;;5053252;28;20183;-72
2023/02/05 10:39:45;;;;;;;0.82;0.82;;;5.20;98.30;;;;;;5053647;28;20161;-71
2023/02/05 10:42:32;;;;;;;0.90;0.90;;;5.20;98.10;;;;;;5051867;28;20193;-71
2023/02/05 10:45:18;;;;;;;0.40;0.40;;;5.20;98.40;;;;;;5053488;28;20617;-72
2023/02/05 10:48:08;;;;;;;1.15;1.15;;;5.20;98.50;;;;;;5053148;28;20231;-71
2023/02/05 10:50:50;;;;;;;1.13;1.13;;;5.10;98.60;;;;;;5053620;28;20217;-71
2023/02/05 10:53:22;;;;;;;0.60;0.60;;;5.20;98.60;;;;;;5053061;28;20170;-71
2023/02/05 10:55:48;;;;;;;0.68;0.68;;;5.30;98.50;;;;;;5053482;28;20644;-71
2023/02/05 10:58:38;;;;;;;1.10;1.10;;;5.40;98.50;;;;;;5053411;28;20184;-70
2023/02/05 11:01:14;;;;;;;0.55;0.55;;;5.40;98.50;;;;;;5053092;28;20192;-71
2023/02/05 11:03:46;;;;;;;0.85;0.85;;;5.50;98.40;;;;;;5053261;28;20225;-71
2023/02/05 11:06:12;;;;;;;0.50;0.50;;;5.60;98.20;;;;;;5053511;28;20263;-71
2023/02/05 11:08:42;;;;;;;1.00;0.90;;;5.50;98.00;;;;;;5053095;28;20200;-71
2023/02/05 11:11:27;;;;;;;0.68;0.68;;;5.40;98.00;;;;;;5054922;28;20425;-72
2023/02/05 11:14:01;;;;;;;1.10;0.68;;;5.60;98.20;;;;;;5057029;28;20207;-72
2023/02/05 11:16:42;;;;;;;0.70;0.70;;;5.60;98.00;;;;;;5057102;28;20229;-70
2023/02/05 11:19:27;;;;;;;1.65;1.55;;;5.70;98.20;;;;;;5057093;28;20658;-72
2023/02/05 11:21:58;;;;;;;1.92;1.83;;;5.70;97.90;;;;;;5056642;28;20189;-72
2023/02/05 11:24:27;;;;;;;2.05;1.95;;;5.70;97.80;;;;;;5057041;28;20515;-72
2023/02/05 11:27:14;;;;;;;2.30;2.20;;;5.60;97.80;;;;;;5056885;28;20213;-70
2023/02/05 11:29:40;;;;;;;1.98;1.88;;;5.60;98.00;;;;;;5056760;28;20577;-72
2023/02/05 11:32:20;;;;;;;1.47;1.37;;;5.50;98.00;;;;;;5056376;28;20186;-70
2023/02/05 11:34:46;;;;;;;1.98;1.88;;;5.60;98.10;;;;;;5056772;28;20404;-71
2023/02/05 11:37:17;;;;;;;0.77;0.77;;;5.70;98.10;;;;;;5056498;28;20212;-72
2023/02/05 11:39:45;;;;;;;4.13;1.90;;;5.70;97.80;;;;;;5056470;28;20162;-71
2023/02/05 11:42:22;;;;;;;0.50;0.50;;;5.60;97.80;;;;;;5056182;28;20272;-72
2023/02/05 11:44:52;;;;;;;0.73;0.73;;;5.60;97.90;;;;;;5056553;28;20280;-72
2023/02/05 11:47:29;;;;;;;1.08;0.98;;;5.50;97.80;;;;;;5056682;28;20222;-72
2023/02/05 11:49:56;;;;;;;1.23;1.17;;;5.40;98.00;;;;;;5056868;28;20203;-71
2023/02/05 11:52:26;;;;;;;0.60;0.60;;;5.40;98.20;;;;;;5055893;28;20236;-72
2023/02/05 11:54:52;;;;;;;0.60;0.60;;;5.40;98.40;;;;;;5055457;28;20171;-72
2023/02/05 11:57:21;;;;;;;3.92;1.25;;;5.30;98.40;;;;;;5056159;28;20646;-70
2023/02/05 12:00:00;;;;;;;1.88;1.40;;;5.30;98.60;;;;;;5056340;28;20178;-72
2023/02/05 12:02:28;;;;;;;2.60;2.40;;;5.20;98.80;;;;;;5055894;28;20205;-70
2023/02/05 12:05:02;;;;;;;1.08;1.05;;;5.20;98.70;;;;;;5056536;28;20174;-72
2023/02/05 12:07:41;;;;;;;0.50;0.50;;;5.10;98.70;;;;;;5056146;28;20220;-70
2023/02/05 12:10:42;;;;;;;0.50;0.50;;;4.90;98.90;;;;;;5056409;28;20166;-72
2023/02/05 12:13:38;;;;;;;0.40;0.40;;;4.80;99.30;;;;;;5055921;28;20167;-71
2023/02/05 12:16:31;;;;;;;2.15;2.05;;;4.80;99.70;;;;;;5056148;28;20170;-70
2023/02/05 12:19:14;;;;;;;0.95;0.95;;;4.90;99.60;;;;;;5056014;28;20175;-70
2023/02/05 12:22:01;;;;;;;0.50;0.50;;;4.90;99.60;;;;;;5055133;28;20194;-72
2023/02/05 12:25:05;;;;;;;0.40;0.40;;;5.10;99.40;;;;;;5055988;28;20322;-71
2023/02/05 12:27:57;;;;;;;1.05;1.05;;;5.30;99.20;;;;;;5055850;28;20217;-72
2023/02/05 12:30:41;;;;;;;0.50;0.50;;;5.40;99.00;;;;;;5054725;28;20182;-71
2023/02/05 12:33:32;;;;;;;1.58;1.48;;;5.30;98.70;;;;;;5055560;28;20235;-71
2023/02/05 12:36:07;;;;;;;0.40;0.40;;;5.10;98.70;;;;;;5055497;28;20201;-72
2023/02/05 12:38:42;;;;;;;1.70;1.60;;;5.00;99.10;;;;;;5055382;28;20190;-70
2023/02/05 12:41:26;;;;;;;0.55;0.55;;;5.00;99.30;;;;;;5055280;28;20603;-72
2023/02/05 12:44:01;;;;;;;0.40;0.40;;;5.00;99.40;;;;;;5055249;28;20198;-71
2023/02/05 12:46:54;;;;;;;0.47;0.47;;;5.00;99.40;;;;;;5055643;28;20562;-72
2023/02/05 12:49:38;;;;;;;1.67;1.10;;;5.00;99.50;;;;;;5055512;28;20187;-70
2023/02/05 12:52:14;;;;;;;0.40;0.40;;;5.00;99.70;;;;;;5055065;28;20186;-72
2023/02/05 12:55:17;;;;;;;0.38;0.38;;;5.00;99.90;;;;;;5055203;28;20170;-71
2023/02/05 12:57:52;;;;;;;0.40;0.40;;;5.00;99.90;;;;;;5055333;28;20170;-69
2023/02/05 13:00:39;;;;;;;0.40;0.40;;;5.00;99.80;;;;;;5055090;28;20617;-71
2023/02/05 13:03:15;;;;;;;0.73;0.73;;;5.10;99.80;;;;;;5054908;28;20295;-72
2023/02/05 13:05:49;;;;;;;0.50;0.50;;;5.10;99.70;;;;;;5055121;28;20170;-71
2023/02/05 13:08:33;;;;;;;0.82;0.73;;;5.20;99.70;;;;;;5055099;28;20164;-71
2023/02/05 13:11:06;;;;;;;0.40;0.40;;;5.20;99.60;;;;;;5054881;28;20193;-72
2023/02/05 13:13:51;;;;;;;0.55;0.55;;;5.20;99.70;;;;;;5054630;28;20190;-72
2023/02/05 13:16:18;;;;;;;0.40;0.40;;;5.30;99.80;;;;;;5054796;28;20737;-72
2023/02/05 13:19:10;;;;;;;0.93;0.57;;;5.30;99.60;;;;;;5054815;28;20174;-71
2023/02/05 13:30:24;;;;;;;0.50;0.50;;;5.90;98.90;;;;;;5054861;28;20602;-70
2023/02/05 13:32:54;;;;;;;0.52;0.52;;;5.90;98.60;;;;;;5054053;28;20230;-72
2023/02/05 13:35:22;;;;;;;0.50;0.50;;;5.80;98.60;;;;;;5054062;28;20190;-71